Skip Navigation LinksHome page > Weather > Current weather Skip Navigation Links

Current Weather

Waukesha County, Waukesha, Wis.

For information only: do not use for flight planning or navigation.
Latest weather
Observation time Sunday, August 1, 2021 5:45 AM CDT
Local time Sunday, August 1, 2021 6:13 AM CDT
Flight conditions Visual Meteorological Conditions
Winds
Wind speed calm
Visibility 5 mi.
Present weather mist
Sky condition
Ceiling unlimited
Sky clear
Temperature 57°F
Dewpoint 55°F
Altimeter 30.01 in.Hg
Derived measurements
Relative humidity 94%
Density altitude 899 ft.
METAR KUES 011045Z 00000KT 5SM BR CLR 14/13 A3001

Settings

Location code

InnerDrive.Weather 4.0.6770.0 Release CLR 4.0.30319.42000
Copyright ©2018 Inner Drive Technology. All rights reserved. Portions Copyright ©1986-2018 David Braverman.

Find weather

Site navigation


Skip Navigation Links

Place info

Page info

PayPal - The safer, easier way to pay online!

Return home.

Copyright ©2021 Inner Drive Technology. Purveyors of fine, hand-crafted computer software. Page printed 2021-08-01T11:13:19 UTC.